sensor_id;sensor_type;location;lat;lon;timestamp;P1;durP1;ratioP1;P2;durP2;ratioP2
70997;SDS011;58663;52.040;4.634;2023-03-12T00:02:07;10.90;;;5.25;;
70997;SDS011;58663;52.040;4.634;2023-03-12T00:04:33;9.70;;;4.88;;
70997;SDS011;58663;52.040;4.634;2023-03-12T00:07:00;13.52;;;5.13;;
70997;SDS011;58663;52.040;4.634;2023-03-12T00:09:26;8.10;;;4.22;;
70997;SDS011;58663;52.040;4.634;2023-03-12T00:11:51;7.88;;;5.20;;
70997;SDS011;58663;52.040;4.634;2023-03-12T00:14:17;10.13;;;5.40;;
70997;SDS011;58663;52.040;4.634;2023-03-12T00:16:42;11.38;;;5.40;;
70997;SDS011;58663;52.040;4.634;2023-03-12T00:19:08;10.77;;;5.55;;
70997;SDS011;58663;52.040;4.634;2023-03-12T00:21:35;13.25;;;5.28;;
70997;SDS011;58663;52.040;4.634;2023-03-12T00:24:00;10.02;;;4.70;;
70997;SDS011;58663;52.040;4.634;2023-03-12T00:26:25;8.45;;;4.55;;
70997;SDS011;58663;52.040;4.634;2023-03-12T00:28:51;11.98;;;5.30;;
70997;SDS011;58663;52.040;4.634;2023-03-12T00:33:43;8.00;;;4.38;;
70997;SDS011;58663;52.040;4.634;2023-03-12T00:36:08;7.18;;;5.60;;
70997;SDS011;58663;52.040;4.634;2023-03-12T00:38:34;11.00;;;4.90;;
70997;SDS011;58663;52.040;4.634;2023-03-12T00:41:00;9.85;;;4.90;;
70997;SDS011;58663;52.040;4.634;2023-03-12T00:43:25;12.40;;;5.35;;
70997;SDS011;58663;52.040;4.634;2023-03-12T00:45:51;8.32;;;4.82;;
70997;SDS011;58663;52.040;4.634;2023-03-12T00:48:16;14.55;;;5.22;;
70997;SDS011;58663;52.040;4.634;2023-03-12T00:50:41;9.60;;;4.47;;
70997;SDS011;58663;52.040;4.634;2023-03-12T00:53:07;5.75;;;4.30;;
70997;SDS011;58663;52.040;4.634;2023-03-12T00:55:32;6.70;;;4.50;;
70997;SDS011;58663;52.040;4.634;2023-03-12T00:57:57;12.93;;;4.85;;
70997;SDS011;58663;52.040;4.634;2023-03-12T01:00:23;8.18;;;4.45;;
70997;SDS011;58663;52.040;4.634;2023-03-12T01:02:48;8.88;;;5.10;;
70997;SDS011;58663;52.040;4.634;2023-03-12T01:05:14;10.60;;;5.07;;
70997;SDS011;58663;52.040;4.634;2023-03-12T01:07:39;7.50;;;4.47;;
70997;SDS011;58663;52.040;4.634;2023-03-12T01:10:05;8.00;;;4.05;;
70997;SDS011;58663;52.040;4.634;2023-03-12T01:12:31;11.90;;;4.70;;
70997;SDS011;58663;52.040;4.634;2023-03-12T01:14:56;6.20;;;4.40;;
70997;SDS011;58663;52.040;4.634;2023-03-12T01:17:21;13.13;;;4.50;;
70997;SDS011;58663;52.040;4.634;2023-03-12T01:19:47;13.32;;;4.63;;
70997;SDS011;58663;52.040;4.634;2023-03-12T01:22:12;7.85;;;4.40;;
70997;SDS011;58663;52.040;4.634;2023-03-12T01:24:38;9.93;;;4.78;;
70997;SDS011;58663;52.040;4.634;2023-03-12T01:27:03;10.70;;;5.03;;
70997;SDS011;58663;52.040;4.634;2023-03-12T01:29:29;12.68;;;4.40;;
70997;SDS011;58663;52.040;4.634;2023-03-12T01:31:54;5.55;;;3.90;;
70997;SDS011;58663;52.040;4.634;2023-03-12T01:34:19;6.40;;;4.40;;
70997;SDS011;58663;52.040;4.634;2023-03-12T01:36:45;9.27;;;5.47;;
70997;SDS011;58663;52.040;4.634;2023-03-12T01:39:12;8.75;;;4.65;;
70997;SDS011;58663;52.040;4.634;2023-03-12T01:41:38;7.25;;;4.60;;
70997;SDS011;58663;52.040;4.634;2023-03-12T01:44:04;5.82;;;3.97;;
70997;SDS011;58663;52.040;4.634;2023-03-12T01:49:06;13.32;;;4.82;;
70997;SDS011;58663;52.040;4.634;2023-03-12T01:57:13;9.13;;;4.05;;
70997;SDS011;58663;52.040;4.634;2023-03-12T01:59:48;8.95;;;3.90;;
70997;SDS011;58663;52.040;4.634;2023-03-12T02:02:16;5.95;;;4.13;;
70997;SDS011;58663;52.040;4.634;2023-03-12T02:04:43;5.90;;;4.13;;
70997;SDS011;58663;52.040;4.634;2023-03-12T02:07:14;8.07;;;4.30;;
70997;SDS011;58663;52.040;4.634;2023-03-12T02:09:41;11.20;;;4.95;;
70997;SDS011;58663;52.040;4.634;2023-03-12T02:12:08;9.02;;;4.70;;
70997;SDS011;58663;52.040;4.634;2023-03-12T02:14:35;8.10;;;4.95;;
70997;SDS011;58663;52.040;4.634;2023-03-12T02:17:01;8.73;;;4.43;;
70997;SDS011;58663;52.040;4.634;2023-03-12T02:19:30;6.72;;;4.55;;
70997;SDS011;58663;52.040;4.634;2023-03-12T02:21:56;6.35;;;4.15;;
70997;SDS011;58663;52.040;4.634;2023-03-12T02:24:37;7.68;;;4.82;;
70997;SDS011;58663;52.040;4.634;2023-03-12T02:27:06;6.32;;;4.32;;
70997;SDS011;58663;52.040;4.634;2023-03-12T02:29:33;7.43;;;3.88;;
70997;SDS011;58663;52.040;4.634;2023-03-12T02:32:00;7.32;;;4.00;;
70997;SDS011;58663;52.040;4.634;2023-03-12T02:34:28;8.75;;;4.15;;
70997;SDS011;58663;52.040;4.634;2023-03-12T02:36:54;7.15;;;4.47;;
70997;SDS011;58663;52.040;4.634;2023-03-12T02:39:19;8.48;;;4.03;;
70997;SDS011;58663;52.040;4.634;2023-03-12T02:41:45;5.82;;;3.33;;
70997;SDS011;58663;52.040;4.634;2023-03-12T02:44:17;6.53;;;3.53;;
70997;SDS011;58663;52.040;4.634;2023-03-12T02:46:47;7.35;;;3.85;;
70997;SDS011;58663;52.040;4.634;2023-03-12T02:49:14;7.25;;;3.58;;
70997;SDS011;58663;52.040;4.634;2023-03-12T02:51:42;7.55;;;3.67;;
70997;SDS011;58663;52.040;4.634;2023-03-12T02:54:09;5.03;;;3.10;;
70997;SDS011;58663;52.040;4.634;2023-03-12T02:56:35;4.55;;;4.03;;
70997;SDS011;58663;52.040;4.634;2023-03-12T02:59:01;6.68;;;3.28;;
70997;SDS011;58663;52.040;4.634;2023-03-12T03:01:26;5.00;;;3.13;;
70997;SDS011;58663;52.040;4.634;2023-03-12T03:03:52;6.65;;;3.38;;
70997;SDS011;58663;52.040;4.634;2023-03-12T03:06:18;11.65;;;3.45;;
70997;SDS011;58663;52.040;4.634;2023-03-12T03:08:44;12.15;;;3.45;;
70997;SDS011;58663;52.040;4.634;2023-03-12T03:11:10;8.27;;;2.90;;
70997;SDS011;58663;52.040;4.634;2023-03-12T03:13:36;4.75;;;2.78;;
70997;SDS011;58663;52.040;4.634;2023-03-12T03:16:02;6.97;;;2.72;;
70997;SDS011;58663;52.040;4.634;2023-03-12T03:18:28;7.28;;;2.97;;
70997;SDS011;58663;52.040;4.634;2023-03-12T03:21:00;4.28;;;2.50;;
70997;SDS011;58663;52.040;4.634;2023-03-12T03:23:27;9.18;;;2.97;;
70997;SDS011;58663;52.040;4.634;2023-03-12T03:25:53;5.57;;;2.95;;
70997;SDS011;58663;52.040;4.634;2023-03-12T03:28:19;7.78;;;3.42;;
70997;SDS011;58663;52.040;4.634;2023-03-12T03:30:46;7.45;;;2.97;;
70997;SDS011;58663;52.040;4.634;2023-03-12T03:33:11;5.40;;;2.90;;
70997;SDS011;58663;52.040;4.634;2023-03-12T03:35:37;6.22;;;2.97;;
70997;SDS011;58663;52.040;4.634;2023-03-12T03:38:02;7.60;;;2.83;;
70997;SDS011;58663;52.040;4.634;2023-03-12T03:40:28;7.57;;;2.72;;
70997;SDS011;58663;52.040;4.634;2023-03-12T03:42:53;8.30;;;3.85;;
70997;SDS011;58663;52.040;4.634;2023-03-12T03:45:19;6.63;;;3.17;;
70997;SDS011;58663;52.040;4.634;2023-03-12T03:47:44;6.15;;;2.95;;
70997;SDS011;58663;52.040;4.634;2023-03-12T03:50:10;6.68;;;3.20;;
70997;SDS011;58663;52.040;4.634;2023-03-12T03:52:35;5.30;;;3.00;;
70997;SDS011;58663;52.040;4.634;2023-03-12T03:55:01;5.10;;;3.53;;
70997;SDS011;58663;52.040;4.634;2023-03-12T03:57:27;6.13;;;3.65;;
70997;SDS011;58663;52.040;4.634;2023-03-12T03:59:52;5.90;;;2.92;;
70997;SDS011;58663;52.040;4.634;2023-03-12T04:02:18;10.50;;;3.17;;
70997;SDS011;58663;52.040;4.634;2023-03-12T04:04:43;8.65;;;3.53;;
70997;SDS011;58663;52.040;4.634;2023-03-12T04:07:09;8.80;;;3.33;;
70997;SDS011;58663;52.040;4.634;2023-03-12T04:09:35;6.13;;;3.45;;
70997;SDS011;58663;52.040;4.634;2023-03-12T04:12:00;8.93;;;3.83;;
70997;SDS011;58663;52.040;4.634;2023-03-12T04:14:25;6.88;;;3.25;;
70997;SDS011;58663;52.040;4.634;2023-03-12T04:16:51;6.75;;;4.07;;
70997;SDS011;58663;52.040;4.634;2023-03-12T04:19:16;7.93;;;3.75;;
70997;SDS011;58663;52.040;4.634;2023-03-12T04:21:41;4.93;;;3.53;;
70997;SDS011;58663;52.040;4.634;2023-03-12T04:24:07;6.43;;;3.53;;
70997;SDS011;58663;52.040;4.634;2023-03-12T04:26:38;5.55;;;3.30;;
70997;SDS011;58663;52.040;4.634;2023-03-12T04:29:03;7.13;;;3.65;;
70997;SDS011;58663;52.040;4.634;2023-03-12T04:31:28;6.00;;;3.67;;
70997;SDS011;58663;52.040;4.634;2023-03-12T04:33:54;5.68;;;3.22;;
70997;SDS011;58663;52.040;4.634;2023-03-12T04:36:19;7.53;;;3.60;;
70997;SDS011;58663;52.040;4.634;2023-03-12T04:38:44;8.70;;;4.22;;
70997;SDS011;58663;52.040;4.634;2023-03-12T04:41:11;11.80;;;4.22;;
70997;SDS011;58663;52.040;4.634;2023-03-12T04:43:38;10.43;;;4.22;;
70997;SDS011;58663;52.040;4.634;2023-03-12T04:46:04;12.23;;;4.30;;
70997;SDS011;58663;52.040;4.634;2023-03-12T04:48:30;7.30;;;3.85;;
70997;SDS011;58663;52.040;4.634;2023-03-12T04:50:56;10.18;;;5.07;;
70997;SDS011;58663;52.040;4.634;2023-03-12T04:53:21;11.27;;;4.60;;
70997;SDS011;58663;52.040;4.634;2023-03-12T04:55:47;14.25;;;4.97;;
70997;SDS011;58663;52.040;4.634;2023-03-12T04:58:12;10.80;;;5.38;;
70997;SDS011;58663;52.040;4.634;2023-03-12T05:00:38;10.20;;;5.68;;
70997;SDS011;58663;52.040;4.634;2023-03-12T05:03:05;6.93;;;4.50;;
70997;SDS011;58663;52.040;4.634;2023-03-12T05:05:30;10.63;;;5.90;;
70997;SDS011;58663;52.040;4.634;2023-03-12T05:07:56;9.00;;;4.75;;
70997;SDS011;58663;52.040;4.634;2023-03-12T05:10:21;8.27;;;5.38;;
70997;SDS011;58663;52.040;4.634;2023-03-12T05:12:46;9.45;;;4.75;;
70997;SDS011;58663;52.040;4.634;2023-03-12T05:15:11;9.13;;;5.13;;
70997;SDS011;58663;52.040;4.634;2023-03-12T05:17:37;8.98;;;6.28;;
70997;SDS011;58663;52.040;4.634;2023-03-12T05:20:02;10.23;;;5.97;;
70997;SDS011;58663;52.040;4.634;2023-03-12T05:22:30;10.68;;;5.82;;
70997;SDS011;58663;52.040;4.634;2023-03-12T05:24:55;12.25;;;5.13;;
70997;SDS011;58663;52.040;4.634;2023-03-12T05:27:20;12.80;;;6.88;;
70997;SDS011;58663;52.040;4.634;2023-03-12T05:29:46;9.27;;;6.07;;
70997;SDS011;58663;52.040;4.634;2023-03-12T05:32:11;8.38;;;5.55;;
70997;SDS011;58663;52.040;4.634;2023-03-12T05:34:36;14.60;;;5.95;;
70997;SDS011;58663;52.040;4.634;2023-03-12T05:37:02;16.25;;;6.35;;
70997;SDS011;58663;52.040;4.634;2023-03-12T05:39:27;12.65;;;6.85;;
70997;SDS011;58663;52.040;4.634;2023-03-12T05:41:53;15.65;;;6.25;;
70997;SDS011;58663;52.040;4.634;2023-03-12T05:44:20;10.77;;;6.55;;
70997;SDS011;58663;52.040;4.634;2023-03-12T05:46:47;12.30;;;6.63;;
70997;SDS011;58663;52.040;4.634;2023-03-12T05:49:12;15.65;;;6.75;;
70997;SDS011;58663;52.040;4.634;2023-03-12T05:51:37;14.88;;;7.03;;
70997;SDS011;58663;52.040;4.634;2023-03-12T05:54:03;14.20;;;7.55;;
70997;SDS011;58663;52.040;4.634;2023-03-12T05:56:28;10.68;;;7.10;;
70997;SDS011;58663;52.040;4.634;2023-03-12T05:58:54;11.38;;;6.78;;
70997;SDS011;58663;52.040;4.634;2023-03-12T06:01:21;13.82;;;7.20;;
70997;SDS011;58663;52.040;4.634;2023-03-12T06:03:49;15.02;;;7.45;;
70997;SDS011;58663;52.040;4.634;2023-03-12T06:06:14;11.00;;;7.28;;
70997;SDS011;58663;52.040;4.634;2023-03-12T06:08:41;15.98;;;6.97;;
70997;SDS011;58663;52.040;4.634;2023-03-12T06:11:06;14.80;;;7.82;;
70997;SDS011;58663;52.040;4.634;2023-03-12T06:13:32;10.57;;;7.30;;
70997;SDS011;58663;52.040;4.634;2023-03-12T06:16:01;17.48;;;7.57;;
70997;SDS011;58663;52.040;4.634;2023-03-12T06:18:31;14.77;;;7.53;;
70997;SDS011;58663;52.040;4.634;2023-03-12T06:21:10;18.38;;;8.95;;
70997;SDS011;58663;52.040;4.634;2023-03-12T06:23:37;12.07;;;7.95;;
70997;SDS011;58663;52.040;4.634;2023-03-12T06:26:03;16.50;;;8.80;;
70997;SDS011;58663;52.040;4.634;2023-03-12T06:28:28;15.00;;;9.20;;
70997;SDS011;58663;52.040;4.634;2023-03-12T06:30:54;15.10;;;8.05;;
70997;SDS011;58663;52.040;4.634;2023-03-12T06:33:20;11.65;;;8.18;;
70997;SDS011;58663;52.040;4.634;2023-03-12T06:35:45;16.33;;;9.27;;
70997;SDS011;58663;52.040;4.634;2023-03-12T06:38:11;21.33;;;9.80;;
70997;SDS011;58663;52.040;4.634;2023-03-12T06:40:36;15.27;;;9.23;;
70997;SDS011;58663;52.040;4.634;2023-03-12T06:43:01;19.48;;;9.90;;
70997;SDS011;58663;52.040;4.634;2023-03-12T06:45:27;13.85;;;9.20;;
70997;SDS011;58663;52.040;4.634;2023-03-12T06:47:52;16.15;;;9.82;;
70997;SDS011;58663;52.040;4.634;2023-03-12T06:50:18;15.00;;;9.23;;
70997;SDS011;58663;52.040;4.634;2023-03-12T06:52:43;16.33;;;9.95;;
70997;SDS011;58663;52.040;4.634;2023-03-12T06:55:08;18.58;;;9.60;;
70997;SDS011;58663;52.040;4.634;2023-03-12T06:57:34;15.68;;;9.15;;
70997;SDS011;58663;52.040;4.634;2023-03-12T06:59:59;16.90;;;9.98;;
70997;SDS011;58663;52.040;4.634;2023-03-12T07:02:25;17.90;;;10.60;;
70997;SDS011;58663;52.040;4.634;2023-03-12T07:04:50;15.02;;;9.13;;
70997;SDS011;58663;52.040;4.634;2023-03-12T07:07:16;14.73;;;8.98;;
70997;SDS011;58663;52.040;4.634;2023-03-12T07:09:42;19.73;;;9.63;;
70997;SDS011;58663;52.040;4.634;2023-03-12T07:12:07;19.85;;;10.82;;
70997;SDS011;58663;52.040;4.634;2023-03-12T07:14:33;18.48;;;9.98;;
70997;SDS011;58663;52.040;4.634;2023-03-12T07:16:58;21.23;;;10.95;;
70997;SDS011;58663;52.040;4.634;2023-03-12T07:19:25;18.48;;;10.38;;
70997;SDS011;58663;52.040;4.634;2023-03-12T07:21:51;21.63;;;10.13;;
70997;SDS011;58663;52.040;4.634;2023-03-12T07:24:17;17.45;;;10.05;;
70997;SDS011;58663;52.040;4.634;2023-03-12T07:26:42;22.75;;;10.30;;
70997;SDS011;58663;52.040;4.634;2023-03-12T07:29:07;17.17;;;10.18;;
70997;SDS011;58663;52.040;4.634;2023-03-12T07:31:33;22.20;;;10.27;;
70997;SDS011;58663;52.040;4.634;2023-03-12T07:33:58;15.30;;;9.95;;
70997;SDS011;58663;52.040;4.634;2023-03-12T07:36:24;18.33;;;10.52;;
70997;SDS011;58663;52.040;4.634;2023-03-12T07:38:49;21.33;;;11.38;;
70997;SDS011;58663;52.040;4.634;2023-03-12T07:41:15;18.40;;;9.75;;
70997;SDS011;58663;52.040;4.634;2023-03-12T07:43:40;19.20;;;11.00;;
70997;SDS011;58663;52.040;4.634;2023-03-12T07:46:05;23.20;;;10.43;;
70997;SDS011;58663;52.040;4.634;2023-03-12T07:48:31;19.67;;;11.15;;
70997;SDS011;58663;52.040;4.634;2023-03-12T07:50:56;20.42;;;11.23;;
70997;SDS011;58663;52.040;4.634;2023-03-12T07:53:21;20.00;;;10.70;;
70997;SDS011;58663;52.040;4.634;2023-03-12T07:55:47;26.67;;;11.25;;
70997;SDS011;58663;52.040;4.634;2023-03-12T07:58:13;21.25;;;11.90;;
70997;SDS011;58663;52.040;4.634;2023-03-12T08:00:39;20.00;;;10.88;;
70997;SDS011;58663;52.040;4.634;2023-03-12T08:03:05;23.08;;;11.10;;
70997;SDS011;58663;52.040;4.634;2023-03-12T08:05:31;22.05;;;12.85;;
70997;SDS011;58663;52.040;4.634;2023-03-12T08:07:56;26.00;;;12.68;;
70997;SDS011;58663;52.040;4.634;2023-03-12T08:10:22;27.20;;;12.95;;
70997;SDS011;58663;52.040;4.634;2023-03-12T08:12:47;26.30;;;13.63;;
70997;SDS011;58663;52.040;4.634;2023-03-12T08:15:13;28.30;;;13.45;;
70997;SDS011;58663;52.040;4.634;2023-03-12T08:17:39;32.10;;;13.55;;
70997;SDS011;58663;52.040;4.634;2023-03-12T08:20:05;29.30;;;13.45;;
70997;SDS011;58663;52.040;4.634;2023-03-12T08:22:33;31.08;;;12.70;;
70997;SDS011;58663;52.040;4.634;2023-03-12T08:24:59;28.80;;;14.82;;
70997;SDS011;58663;52.040;4.634;2023-03-12T08:27:25;35.67;;;14.00;;
70997;SDS011;58663;52.040;4.634;2023-03-12T08:29:50;31.42;;;14.90;;
70997;SDS011;58663;52.040;4.634;2023-03-12T08:32:15;30.67;;;15.88;;
70997;SDS011;58663;52.040;4.634;2023-03-12T08:34:41;35.45;;;17.27;;
70997;SDS011;58663;52.040;4.634;2023-03-12T08:37:06;40.63;;;15.07;;
70997;SDS011;58663;52.040;4.634;2023-03-12T08:39:32;45.50;;;18.55;;
70997;SDS011;58663;52.040;4.634;2023-03-12T08:41:57;42.58;;;17.05;;
70997;SDS011;58663;52.040;4.634;2023-03-12T08:44:23;45.97;;;18.02;;
70997;SDS011;58663;52.040;4.634;2023-03-12T08:46:49;43.38;;;18.88;;
70997;SDS011;58663;52.040;4.634;2023-03-12T08:49:15;42.40;;;18.60;;
70997;SDS011;58663;52.040;4.634;2023-03-12T08:51:40;44.72;;;18.70;;
70997;SDS011;58663;52.040;4.634;2023-03-12T08:54:06;49.47;;;20.33;;
70997;SDS011;58663;52.040;4.634;2023-03-12T08:56:31;54.15;;;20.02;;
70997;SDS011;58663;52.040;4.634;2023-03-12T08:58:57;48.90;;;20.40;;
70997;SDS011;58663;52.040;4.634;2023-03-12T09:01:23;46.45;;;19.00;;
70997;SDS011;58663;52.040;4.634;2023-03-12T09:03:48;52.13;;;19.55;;
70997;SDS011;58663;52.040;4.634;2023-03-12T09:06:15;48.17;;;19.52;;
70997;SDS011;58663;52.040;4.634;2023-03-12T09:08:41;51.28;;;18.77;;
70997;SDS011;58663;52.040;4.634;2023-03-12T09:11:08;47.28;;;17.55;;
70997;SDS011;58663;52.040;4.634;2023-03-12T09:13:34;45.38;;;17.65;;
70997;SDS011;58663;52.040;4.634;2023-03-12T09:16:00;44.70;;;18.58;;
70997;SDS011;58663;52.040;4.634;2023-03-12T09:18:26;43.50;;;16.27;;
70997;SDS011;58663;52.040;4.634;2023-03-12T09:20:51;36.95;;;15.23;;
70997;SDS011;58663;52.040;4.634;2023-03-12T09:23:17;39.20;;;15.45;;
70997;SDS011;58663;52.040;4.634;2023-03-12T09:25:45;32.67;;;15.45;;
70997;SDS011;58663;52.040;4.634;2023-03-12T09:28:11;37.00;;;13.65;;
70997;SDS011;58663;52.040;4.634;2023-03-12T09:30:37;31.80;;;13.02;;
70997;SDS011;58663;52.040;4.634;2023-03-12T09:33:03;30.73;;;13.20;;
70997;SDS011;58663;52.040;4.634;2023-03-12T09:35:28;29.25;;;12.32;;
70997;SDS011;58663;52.040;4.634;2023-03-12T09:37:55;23.77;;;10.20;;
70997;SDS011;58663;52.040;4.634;2023-03-12T09:40:21;31.58;;;11.13;;
70997;SDS011;58663;52.040;4.634;2023-03-12T09:42:49;28.65;;;10.30;;
70997;SDS011;58663;52.040;4.634;2023-03-12T09:45:23;34.00;;;10.15;;
70997;SDS011;58663;52.040;4.634;2023-03-12T09:47:55;30.70;;;8.07;;
70997;SDS011;58663;52.040;4.634;2023-03-12T09:55:26;21.35;;;6.45;;
70997;SDS011;58663;52.040;4.634;2023-03-12T09:57:53;19.60;;;5.97;;
70997;SDS011;58663;52.040;4.634;2023-03-12T10:00:20;24.35;;;6.65;;
70997;SDS011;58663;52.040;4.634;2023-03-12T10:05:46;27.98;;;6.88;;
70997;SDS011;58663;52.040;4.634;2023-03-12T10:08:28;38.25;;;6.25;;
70997;SDS011;58663;52.040;4.634;2023-03-12T10:14:16;31.17;;;5.45;;
70997;SDS011;58663;52.040;4.634;2023-03-12T10:16:47;26.63;;;6.50;;
70997;SDS011;58663;52.040;4.634;2023-03-12T10:27:18;24.55;;;4.20;;
70997;SDS011;58663;52.040;4.634;2023-03-12T10:29:47;17.42;;;4.75;;
70997;SDS011;58663;52.040;4.634;2023-03-12T10:32:16;20.95;;;5.07;;
70997;SDS011;58663;52.040;4.634;2023-03-12T10:34:48;22.40;;;4.45;;
70997;SDS011;58663;52.040;4.634;2023-03-12T10:37:21;24.85;;;5.75;;
70997;SDS011;58663;52.040;4.634;2023-03-12T10:39:50;30.25;;;6.00;;
70997;SDS011;58663;52.040;4.634;2023-03-12T10:42:21;34.90;;;5.00;;
70997;SDS011;58663;52.040;4.634;2023-03-12T10:44:53;27.23;;;5.03;;
70997;SDS011;58663;52.040;4.634;2023-03-12T10:50:10;21.58;;;4.00;;
70997;SDS011;58663;52.040;4.634;2023-03-12T10:52:36;18.33;;;3.58;;
70997;SDS011;58663;52.040;4.634;2023-03-12T10:55:02;27.55;;;4.63;;
70997;SDS011;58663;52.040;4.634;2023-03-12T10:57:54;24.05;;;3.95;;
70997;SDS011;58663;52.040;4.634;2023-03-12T11:00:24;17.88;;;3.65;;
70997;SDS011;58663;52.040;4.634;2023-03-12T11:05:30;28.45;;;3.78;;
70997;SDS011;58663;52.040;4.634;2023-03-12T11:07:58;21.60;;;4.15;;
70997;SDS011;58663;52.040;4.634;2023-03-12T11:13:20;18.25;;;3.25;;
70997;SDS011;58663;52.040;4.634;2023-03-12T11:15:53;26.02;;;4.55;;
70997;SDS011;58663;52.040;4.634;2023-03-12T11:23:36;31.48;;;6.10;;
70997;SDS011;58663;52.040;4.634;2023-03-12T11:26:03;25.33;;;4.55;;
70997;SDS011;58663;52.040;4.634;2023-03-12T11:28:36;24.67;;;3.72;;
70997;SDS011;58663;52.040;4.634;2023-03-12T11:31:05;21.20;;;4.10;;
70997;SDS011;58663;52.040;4.634;2023-03-12T11:33:34;32.30;;;4.63;;
70997;SDS011;58663;52.040;4.634;2023-03-12T11:38:52;26.48;;;3.53;;
70997;SDS011;58663;52.040;4.634;2023-03-12T11:45:20;19.90;;;3.42;;
70997;SDS011;58663;52.040;4.634;2023-03-12T11:48:04;20.98;;;3.65;;
70997;SDS011;58663;52.040;4.634;2023-03-12T11:50:59;31.08;;;6.32;;
70997;SDS011;58663;52.040;4.634;2023-03-12T11:53:53;28.25;;;3.75;;
70997;SDS011;58663;52.040;4.634;2023-03-12T12:17:58;24.55;;;3.83;;
70997;SDS011;58663;52.040;4.634;2023-03-12T12:20:44;34.72;;;4.47;;
70997;SDS011;58663;52.040;4.634;2023-03-12T12:26:11;22.77;;;3.50;;
70997;SDS011;58663;52.040;4.634;2023-03-12T12:40:06;22.13;;;3.50;;
70997;SDS011;58663;52.040;4.634;2023-03-12T12:42:47;21.92;;;3.17;;
70997;SDS011;58663;52.040;4.634;2023-03-12T12:45:22;28.33;;;4.45;;
70997;SDS011;58663;52.040;4.634;2023-03-12T12:47:50;29.85;;;5.28;;
70997;SDS011;58663;52.040;4.634;2023-03-12T12:50:19;23.15;;;4.65;;
70997;SDS011;58663;52.040;4.634;2023-03-12T12:52:51;19.90;;;4.85;;
70997;SDS011;58663;52.040;4.634;2023-03-12T12:55:24;28.10;;;4.60;;
70997;SDS011;58663;52.040;4.634;2023-03-12T13:00:50;32.75;;;5.28;;
70997;SDS011;58663;52.040;4.634;2023-03-12T13:03:20;16.77;;;3.97;;
70997;SDS011;58663;52.040;4.634;2023-03-12T13:13:51;19.70;;;3.60;;
70997;SDS011;58663;52.040;4.634;2023-03-12T13:16:39;31.70;;;5.22;;
70997;SDS011;58663;52.040;4.634;2023-03-12T13:21:39;27.63;;;4.20;;
70997;SDS011;58663;52.040;4.634;2023-03-12T13:26:42;19.48;;;3.60;;
70997;SDS011;58663;52.040;4.634;2023-03-12T13:29:20;28.38;;;5.07;;
70997;SDS011;58663;52.040;4.634;2023-03-12T13:32:34;28.60;;;3.95;;
70997;SDS011;58663;52.040;4.634;2023-03-12T13:35:27;21.00;;;4.13;;
70997;SDS011;58663;52.040;4.634;2023-03-12T13:43:11;22.58;;;3.78;;
70997;SDS011;58663;52.040;4.634;2023-03-12T13:46:00;21.98;;;3.45;;
70997;SDS011;58663;52.040;4.634;2023-03-12T13:48:25;23.45;;;4.00;;
70997;SDS011;58663;52.040;4.634;2023-03-12T13:50:52;24.38;;;3.47;;
70997;SDS011;58663;52.040;4.634;2023-03-12T13:53:35;22.75;;;4.03;;
70997;SDS011;58663;52.040;4.634;2023-03-12T13:58:30;22.65;;;3.58;;
70997;SDS011;58663;52.040;4.634;2023-03-12T14:01:05;17.45;;;3.38;;
70997;SDS011;58663;52.040;4.634;2023-03-12T14:03:39;18.52;;;3.55;;
70997;SDS011;58663;52.040;4.634;2023-03-12T14:06:10;21.30;;;3.58;;
70997;SDS011;58663;52.040;4.634;2023-03-12T14:19:03;20.52;;;3.75;;
70997;SDS011;58663;52.040;4.634;2023-03-12T14:21:32;24.23;;;3.92;;
70997;SDS011;58663;52.040;4.634;2023-03-12T14:23:59;23.30;;;4.43;;
70997;SDS011;58663;52.040;4.634;2023-03-12T14:26:26;23.67;;;3.75;;
70997;SDS011;58663;52.040;4.634;2023-03-12T14:28:57;21.58;;;3.58;;
70997;SDS011;58663;52.040;4.634;2023-03-12T14:31:28;19.90;;;3.33;;
70997;SDS011;58663;52.040;4.634;2023-03-12T14:39:32;30.77;;;4.10;;
70997;SDS011;58663;52.040;4.634;2023-03-12T14:42:02;27.17;;;4.20;;
70997;SDS011;58663;52.040;4.634;2023-03-12T14:44:29;17.75;;;4.63;;
70997;SDS011;58663;52.040;4.634;2023-03-12T14:47:00;29.55;;;3.83;;
70997;SDS011;58663;52.040;4.634;2023-03-12T14:49:37;24.98;;;3.63;;
70997;SDS011;58663;52.040;4.634;2023-03-12T14:52:04;33.10;;;4.05;;
70997;SDS011;58663;52.040;4.634;2023-03-12T14:54:29;23.75;;;4.80;;
70997;SDS011;58663;52.040;4.634;2023-03-12T14:56:54;27.70;;;3.85;;
70997;SDS011;58663;52.040;4.634;2023-03-12T14:59:21;23.20;;;3.63;;
70997;SDS011;58663;52.040;4.634;2023-03-12T15:01:48;18.15;;;4.00;;
70997;SDS011;58663;52.040;4.634;2023-03-12T15:04:18;30.27;;;3.97;;
70997;SDS011;58663;52.040;4.634;2023-03-12T15:06:55;24.67;;;3.78;;
70997;SDS011;58663;52.040;4.634;2023-03-12T15:09:27;23.38;;;4.10;;
70997;SDS011;58663;52.040;4.634;2023-03-12T15:14:23;21.75;;;4.45;;
70997;SDS011;58663;52.040;4.634;2023-03-12T15:16:50;33.40;;;4.40;;
70997;SDS011;58663;52.040;4.634;2023-03-12T15:19:17;23.25;;;4.15;;
70997;SDS011;58663;52.040;4.634;2023-03-12T15:21:45;26.20;;;4.72;;
70997;SDS011;58663;52.040;4.634;2023-03-12T15:24:11;37.63;;;4.13;;
70997;SDS011;58663;52.040;4.634;2023-03-12T15:26:37;31.55;;;4.28;;
70997;SDS011;58663;52.040;4.634;2023-03-12T15:31:55;22.85;;;3.88;;
70997;SDS011;58663;52.040;4.634;2023-03-12T15:34:36;23.02;;;4.47;;
70997;SDS011;58663;52.040;4.634;2023-03-12T15:37:18;31.50;;;4.63;;
70997;SDS011;58663;52.040;4.634;2023-03-12T15:39:46;28.00;;;4.55;;
70997;SDS011;58663;52.040;4.634;2023-03-12T15:42:14;21.63;;;3.90;;
70997;SDS011;58663;52.040;4.634;2023-03-12T15:44:47;35.78;;;3.90;;
70997;SDS011;58663;52.040;4.634;2023-03-12T15:47:17;29.17;;;4.85;;
70997;SDS011;58663;52.040;4.634;2023-03-12T15:50:05;21.13;;;3.33;;
70997;SDS011;58663;52.040;4.634;2023-03-12T15:55:44;26.02;;;3.13;;
70997;SDS011;58663;52.040;4.634;2023-03-12T15:57:52;22.90;;;4.13;;
70997;SDS011;58663;52.040;4.634;2023-03-12T16:00:20;23.23;;;3.72;;
70997;SDS011;58663;52.040;4.634;2023-03-12T16:05:25;21.87;;;3.77;;
70997;SDS011;58663;52.040;4.634;2023-03-12T16:07:52;27.67;;;4.82;;
70997;SDS011;58663;52.040;4.634;2023-03-12T16:10:19;32.13;;;3.80;;
70997;SDS011;58663;52.040;4.634;2023-03-12T16:12:45;39.95;;;4.28;;
70997;SDS011;58663;52.040;4.634;2023-03-12T16:15:12;36.10;;;5.18;;
70997;SDS011;58663;52.040;4.634;2023-03-12T16:17:41;19.67;;;3.75;;
70997;SDS011;58663;52.040;4.634;2023-03-12T16:20:11;23.80;;;4.13;;
70997;SDS011;58663;52.040;4.634;2023-03-12T16:22:38;29.20;;;3.80;;
70997;SDS011;58663;52.040;4.634;2023-03-12T16:25:03;31.02;;;5.88;;
70997;SDS011;58663;52.040;4.634;2023-03-12T16:27:29;28.15;;;4.60;;
70997;SDS011;58663;52.040;4.634;2023-03-12T16:29:55;27.50;;;4.47;;
70997;SDS011;58663;52.040;4.634;2023-03-12T16:32:21;25.35;;;4.03;;
70997;SDS011;58663;52.040;4.634;2023-03-12T16:34:47;34.90;;;4.97;;
70997;SDS011;58663;52.040;4.634;2023-03-12T16:37:12;30.55;;;4.93;;
70997;SDS011;58663;52.040;4.634;2023-03-12T16:39:38;41.63;;;4.85;;
70997;SDS011;58663;52.040;4.634;2023-03-12T16:42:04;27.10;;;5.30;;
70997;SDS011;58663;52.040;4.634;2023-03-12T16:44:36;31.67;;;4.10;;
70997;SDS011;58663;52.040;4.634;2023-03-12T16:47:02;43.55;;;4.97;;
70997;SDS011;58663;52.040;4.634;2023-03-12T16:49:27;28.00;;;4.50;;
70997;SDS011;58663;52.040;4.634;2023-03-12T16:51:53;26.88;;;4.03;;
70997;SDS011;58663;52.040;4.634;2023-03-12T16:54:18;31.90;;;4.10;;
70997;SDS011;58663;52.040;4.634;2023-03-12T16:56:44;25.45;;;4.32;;